Time;durP1;ratioP1;P1;durP2;ratioP2;P2;SDS_P1;SDS_P2;PMS_P1;PMS_P2;Temp;Humidity;BMP_temperature;BMP_pressure;BME280_temperature;BME280_humidity;BME280_pressure;Samples;Min_cycle;Max_cycle;Signal;HPM_P1;HPM_P2
2024/03/09 00:00:27;;;;;;;39.05;26.58;;;;;;;3.12;100.00;100294.75;5038306;28;20142;-78
2024/03/09 00:02:54;;;;;;;39.80;26.30;;;;;;;3.11;100.00;100294.69;5038429;28;20032;-80
2024/03/09 00:05:21;;;;;;;39.45;25.40;;;;;;;3.12;100.00;100289.50;5045180;28;20436;-78
2024/03/09 00:07:47;;;;;;;39.65;25.90;;;;;;;3.04;100.00;100283.19;5042425;28;20479;-77
2024/03/09 00:10:15;;;;;;;40.22;26.45;;;;;;;3.01;100.00;100282.25;5044786;28;20037;-80
2024/03/09 00:12:47;;;;;;;39.47;25.88;;;;;;;2.97;100.00;100282.19;5043153;28;20109;-78
2024/03/09 00:15:15;;;;;;;39.80;26.90;;;;;;;3.01;100.00;100306.63;5044107;28;20469;-77
2024/03/09 00:17:50;;;;;;;40.15;26.90;;;;;;;3.03;100.00;100311.88;5042925;28;20033;-80
2024/03/09 00:20:25;;;;;;;39.83;26.65;;;;;;;2.96;100.00;100292.59;5044718;28;20021;-81
2024/03/09 00:22:58;;;;;;;40.10;26.25;;;;;;;2.94;100.00;100302.09;5037573;28;20030;-81
2024/03/09 00:25:24;;;;;;;38.83;26.45;;;;;;;2.88;100.00;100308.03;5037907;28;20025;-81
2024/03/09 00:27:52;;;;;;;40.38;26.85;;;;;;;2.90;100.00;100308.97;5045172;28;20466;-81
2024/03/09 00:30:18;;;;;;;39.03;25.40;;;;;;;2.92;100.00;100306.41;5042178;28;20033;-81
2024/03/09 00:32:45;;;;;;;39.38;25.63;;;;;;;2.85;100.00;100299.25;5044109;28;20117;-81
2024/03/09 00:35:10;;;;;;;39.85;27.48;;;;;;;2.90;100.00;100295.91;5042400;28;20025;-70
2024/03/09 00:37:36;;;;;;;40.63;27.73;;;;;;;2.96;100.00;100298.69;5042765;28;20056;-71
2024/03/09 00:40:08;;;;;;;39.65;26.77;;;;;;;2.90;100.00;100300.25;5042324;28;20025;-75
2024/03/09 00:42:37;;;;;;;41.85;28.58;;;;;;;2.90;100.00;100297.66;5042042;28;20037;-72
2024/03/09 00:45:06;;;;;;;40.10;28.02;;;;;;;2.92;100.00;100299.44;5043407;28;20025;-75
2024/03/09 00:47:34;;;;;;;39.22;27.40;;;;;;;2.93;100.00;100289.91;5041860;28;20460;-71
2024/03/09 00:50:00;;;;;;;39.40;26.77;;;;;;;2.95;100.00;100285.59;5043657;28;20112;-70
2024/03/09 00:52:26;;;;;;;39.05;26.95;;;;;;;2.95;100.00;100278.63;5041132;28;20488;-71
2024/03/09 00:54:53;;;;;;;39.13;25.70;;;;;;;2.88;100.00;100275.81;5044324;28;20029;-71
2024/03/09 00:57:20;;;;;;;40.00;26.85;;;;;;;2.86;100.00;100278.38;5040952;28;20028;-70
2024/03/09 00:59:47;;;;;;;39.00;25.92;;;;;;;2.78;100.00;100272.06;5043706;28;20053;-71
2024/03/09 01:02:13;;;;;;;38.60;25.30;;;;;;;2.78;100.00;100275.59;5041501;28;20116;-71
2024/03/09 01:04:38;;;;;;;39.45;27.17;;;;;;;2.78;100.00;100264.22;5042682;28;20121;-71
2024/03/09 01:07:04;;;;;;;40.35;26.55;;;;;;;2.78;100.00;100270.38;5043146;28;20029;-70
2024/03/09 01:09:30;;;;;;;38.85;25.88;;;;;;;2.81;100.00;100268.66;5041229;28;20040;-70
2024/03/09 01:11:55;;;;;;;39.97;26.52;;;;;;;2.76;100.00;100266.81;5044061;28;20467;-72
2024/03/09 01:14:23;;;;;;;39.70;26.38;;;;;;;2.67;100.00;100261.34;5040674;28;20032;-70
2024/03/09 01:16:50;;;;;;;39.55;26.25;;;;;;;2.63;100.00;100259.50;5043910;28;20029;-70
2024/03/09 01:19:15;;;;;;;40.10;26.48;;;;;;;2.57;100.00;100256.72;5041231;28;20079;-70
2024/03/09 01:21:41;;;;;;;41.63;27.23;;;;;;;2.56;100.00;100253.25;5043146;28;20049;-73
2024/03/09 01:24:08;;;;;;;40.47;26.25;;;;;;;2.53;100.00;100252.25;5042576;28;20040;-74
2024/03/09 01:26:34;;;;;;;38.40;25.73;;;;;;;2.51;100.00;100253.94;5041491;28;20064;-75
2024/03/09 01:28:59;;;;;;;39.45;25.73;;;;;;;2.51;100.00;100261.78;5043936;28;20017;-71
2024/03/09 01:31:27;;;;;;;40.10;26.17;;;;;;;2.50;100.00;100244.34;5040886;28;20357;-71
2024/03/09 01:33:53;;;;;;;37.92;26.08;;;;;;;2.56;100.00;100247.13;5037188;28;20053;-71
2024/03/09 01:36:19;;;;;;;39.88;26.45;;;;;;;2.56;100.00;100247.13;5043968;28;20032;-70
2024/03/09 01:38:44;;;;;;;41.08;26.42;;;;;;;2.58;100.00;100235.88;5041543;28;20030;-70
2024/03/09 01:41:10;;;;;;;41.35;27.10;;;;;;;2.60;100.00;100236.81;5042719;28;20022;-70
2024/03/09 01:43:35;;;;;;;40.60;26.58;;;;;;;2.63;100.00;100233.41;5042818;28;20060;-70
2024/03/09 01:46:03;;;;;;;39.80;26.50;;;;;;;2.66;100.00;100233.47;5040890;28;20116;-70
2024/03/09 01:48:28;;;;;;;40.85;26.02;;;;;;;2.64;100.00;100224.72;5043531;28;20029;-71
2024/03/09 01:50:54;;;;;;;40.83;26.90;;;;;;;2.64;100.00;100227.34;5040284;28;20113;-70
2024/03/09 01:53:20;;;;;;;40.58;26.48;;;;;;;2.66;100.00;100228.25;5040491;28;20030;-75
2024/03/09 01:55:46;;;;;;;42.05;26.90;;;;;;;2.60;100.00;100218.53;5043240;28;20037;-72
2024/03/09 01:58:21;;;;;;;41.17;26.88;;;;;;;2.62;100.00;100221.19;5040621;28;20025;-78
2024/03/09 02:00:55;;;;;;;39.72;26.65;;;;;;;2.61;100.00;100214.22;5042010;28;20426;-72
2024/03/09 02:03:22;;;;;;;39.88;26.10;;;;;;;2.59;100.00;100211.56;5040509;28;20180;-74
2024/03/09 02:05:50;;;;;;;37.80;25.60;;;;;;;2.65;100.00;100210.84;5043447;28;20471;-81
2024/03/09 02:08:19;;;;;;;39.25;26.35;;;;;;;2.69;100.00;100209.19;5043652;28;20388;-81
2024/03/09 02:10:45;;;;;;;38.78;25.70;;;;;;;2.68;100.00;100194.34;5040964;28;20029;-81
2024/03/09 02:13:10;;;;;;;39.67;26.95;;;;;;;2.73;100.00;100208.44;5042036;28;20038;-70
2024/03/09 02:15:36;;;;;;;39.10;26.50;;;;;;;2.72;100.00;100191.00;5045380;28;20037;-70
2024/03/09 02:18:02;;;;;;;39.33;26.30;;;;;;;2.77;100.00;100192.88;5043169;28;20045;-71
2024/03/09 02:20:30;;;;;;;39.28;25.42;;;;;;;2.72;100.00;100191.00;5047491;28;20044;-70
2024/03/09 02:22:58;;;;;;;41.75;26.67;;;;;;;2.71;100.00;100186.59;5043745;28;20484;-71
2024/03/09 02:25:26;;;;;;;38.28;25.50;;;;;;;2.70;100.00;100185.72;5038455;28;20044;-71
2024/03/09 02:27:52;;;;;;;39.30;25.85;;;;;;;2.67;100.00;100177.84;5039684;28;20033;-70
2024/03/09 02:30:20;;;;;;;38.50;25.10;;;;;;;2.68;100.00;100179.59;5046450;28;20059;-70
2024/03/09 02:32:46;;;;;;;40.20;26.42;;;;;;;2.70;100.00;100169.19;5042890;28;20051;-70
2024/03/09 02:35:12;;;;;;;39.53;25.95;;;;;;;2.69;100.00;100173.50;5044237;28;20043;-70
2024/03/09 02:37:38;;;;;;;38.67;25.50;;;;;;;2.72;100.00;100173.63;5045437;28;20031;-70
2024/03/09 02:40:05;;;;;;;38.72;25.35;;;;;;;2.73;100.00;100172.75;5044265;28;20064;-71
2024/03/09 02:42:34;;;;;;;38.13;25.35;;;;;;;2.79;100.00;100174.66;5028460;28;20502;-70
2024/03/09 02:44:59;;;;;;;38.60;25.50;;;;;;;2.74;100.00;100166.69;5043607;28;20025;-71
2024/03/09 02:47:26;;;;;;;37.58;24.65;;;;;;;2.71;100.00;100166.63;5046570;28;20090;-70
2024/03/09 02:49:54;;;;;;;38.72;25.40;;;;;;;2.69;100.00;100164.81;5043091;28;20041;-70
2024/03/09 02:52:20;;;;;;;38.55;24.98;;;;;;;2.67;100.00;100174.34;5045036;28;20041;-71
2024/03/09 02:54:45;;;;;;;38.42;25.23;;;;;;;2.64;100.00;100164.69;5043798;28;20483;-70
2024/03/09 02:57:16;;;;;;;38.33;24.90;;;;;;;2.63;100.00;100164.66;5044913;28;20029;-70
2024/03/09 02:59:42;;;;;;;39.55;25.23;;;;;;;2.64;100.00;100154.25;5043292;28;20486;-70
2024/03/09 03:03:45;;;;;;;36.72;24.15;;;;;;;2.66;100.00;100155.19;5042928;28;20128;-73
2024/03/09 03:04:53;;;;;;;37.75;24.65;;;;;;;2.68;100.00;100158.72;5038715;28;20037;-71
2024/03/09 03:07:18;;;;;;;37.97;24.77;;;;;;;2.69;100.00;100154.38;5044448;28;20084;-80
2024/03/09 03:09:48;;;;;;;37.17;24.08;;;;;;;2.66;100.00;100144.72;5044355;28;20033;-70
2024/03/09 03:12:13;;;;;;;37.40;24.60;;;;;;;2.64;100.00;100146.44;5044783;28;20026;-81
2024/03/09 03:14:39;;;;;;;38.30;24.15;;;;;;;2.62;100.00;100150.72;5044968;28;20037;-80
2024/03/09 03:17:06;;;;;;;37.90;24.35;;;;;;;2.60;100.00;100141.97;5044349;28;20082;-82
2024/03/09 03:19:33;;;;;;;38.50;25.15;;;;;;;2.58;100.00;100139.31;5045641;28;20048;-81
2024/03/09 03:21:59;;;;;;;36.80;24.73;;;;;;;2.61;100.00;100135.91;5042114;28;20029;-80
2024/03/09 03:24:25;;;;;;;37.00;24.50;;;;;;;2.65;100.00;100140.38;5046838;28;20483;-81
2024/03/09 03:26:50;;;;;;;37.17;24.33;;;;;;;2.69;100.00;100139.59;5042989;28;20038;-74
2024/03/09 03:29:17;;;;;;;38.67;24.23;;;;;;;2.74;100.00;100137.13;5045200;28;20036;-71
2024/03/09 03:31:44;;;;;;;36.25;23.90;;;;;;;2.78;100.00;100136.31;5042599;28;20029;-71
2024/03/09 03:34:10;;;;;;;35.67;23.80;;;;;;;2.80;100.00;100134.66;5042870;28;20515;-69
2024/03/09 03:36:38;;;;;;;36.65;24.35;;;;;;;2.81;100.00;100136.44;5044845;28;20120;-70
2024/03/09 03:39:05;;;;;;;37.53;24.05;;;;;;;2.85;100.00;100130.41;5042167;28;20033;-71
2024/03/09 03:41:31;;;;;;;36.92;24.20;;;;;;;2.86;100.00;100131.31;5044911;28;20523;-70
2024/03/09 03:43:57;;;;;;;36.03;23.45;;;;;;;2.89;100.00;100132.25;5042133;28;20040;-70
2024/03/09 03:46:22;;;;;;;36.78;23.70;;;;;;;2.94;100.00;100124.53;5038051;28;20029;-81
2024/03/09 03:48:47;;;;;;;37.20;23.40;;;;;;;2.97;100.00;100129.81;5044745;28;20032;-80
2024/03/09 03:51:14;;;;;;;37.30;23.20;;;;;;;2.97;100.00;100124.59;5043503;28;20498;-81
2024/03/09 03:53:41;;;;;;;36.63;23.42;;;;;;;2.99;100.00;100127.28;5043452;28;20152;-73
2024/03/09 03:56:09;;;;;;;35.15;23.05;;;;;;;2.99;100.00;100125.53;5043864;28;20067;-70
2024/03/09 03:58:37;;;;;;;38.35;23.70;;;;;;;3.01;100.00;100123.81;5041818;28;20152;-70
2024/03/09 04:01:03;;;;;;;35.58;23.25;;;;;;;2.98;100.00;100126.38;5043376;28;20032;-70
2024/03/09 04:03:31;;;;;;;34.83;22.67;;;;;;;2.97;100.00;100121.97;5041589;28;20480;-71
2024/03/09 04:05:59;;;;;;;34.72;22.15;;;;;;;2.95;100.00;100124.56;5045314;28;20376;-70
2024/03/09 04:08:26;;;;;;;35.28;22.85;;;;;;;2.93;100.00;100121.03;5036909;28;20477;-71
2024/03/09 04:10:51;;;;;;;35.30;22.17;;;;;;;2.91;100.00;100119.22;5044532;28;20032;-74
2024/03/09 04:13:20;;;;;;;35.47;21.85;;;;;;;2.86;100.00;100120.88;5042332;28;20029;-74
2024/03/09 04:15:46;;;;;;;33.95;21.75;;;;;;;2.82;100.00;100126.84;5044073;28;20033;-75
2024/03/09 04:18:13;;;;;;;35.10;22.27;;;;;;;2.84;100.00;100123.44;5042816;28;20053;-76
2024/03/09 04:20:43;;;;;;;34.47;21.70;;;;;;;2.83;100.00;100121.66;5042782;28;20488;-71
2024/03/09 04:23:16;;;;;;;33.15;21.25;;;;;;;2.83;100.00;100111.22;5043565;28;20025;-70
2024/03/09 04:25:46;;;;;;;33.60;20.88;;;;;;;2.86;100.00;100116.53;5042897;28;20029;-70
2024/03/09 04:28:21;;;;;;;33.35;20.88;;;;;;;2.84;100.00;100113.00;5042812;28;20033;-70
2024/03/09 04:30:48;;;;;;;33.47;20.92;;;;;;;2.79;100.00;100112.88;5043680;28;20420;-70
2024/03/09 04:33:15;;;;;;;33.30;21.17;;;;;;;2.70;100.00;100104.81;5042660;28;20441;-70
2024/03/09 04:35:41;;;;;;;32.83;20.60;;;;;;;2.65;100.00;100103.84;5042905;28;20064;-70
2024/03/09 04:38:07;;;;;;;33.88;21.15;;;;;;;2.65;100.00;100101.22;5041376;28;20053;-74
2024/03/09 04:40:33;;;;;;;32.95;20.77;;;;;;;2.68;100.00;100100.41;5040988;28;20026;-71
2024/03/09 04:43:03;;;;;;;34.30;20.58;;;;;;;2.69;100.00;100100.44;5044314;28;20083;-70
2024/03/09 04:45:31;;;;;;;33.47;20.75;;;;;;;2.74;100.00;100101.44;5040986;28;20039;-71
2024/03/09 04:47:59;;;;;;;32.75;20.95;;;;;;;2.79;100.00;100098.94;5044623;28;20067;-70
2024/03/09 04:50:25;;;;;;;31.83;20.15;;;;;;;2.86;100.00;100099.97;5035723;28;20034;-71
2024/03/09 04:52:51;;;;;;;31.63;19.92;;;;;;;2.92;100.00;100097.50;5043828;28;20104;-69
2024/03/09 04:55:17;;;;;;;32.92;19.70;;;;;;;2.94;100.00;100093.19;5039664;28;20116;-70
2024/03/09 04:57:44;;;;;;;32.78;20.38;;;;;;;2.96;100.00;100091.50;5042726;28;20480;-70
2024/03/09 05:00:14;;;;;;;33.38;20.75;;;;;;;3.03;100.00;100087.28;5042840;28;20065;-70
2024/03/09 05:02:44;;;;;;;32.08;19.98;;;;;;;3.07;100.00;100090.03;5043400;28;20029;-71
2024/03/09 05:05:11;;;;;;;30.73;19.10;;;;;;;3.12;100.00;100087.53;5041425;28;20036;-71
2024/03/09 05:07:36;;;;;;;32.45;19.77;;;;;;;3.19;100.00;100080.69;5043374;28;20075;-70
2024/03/09 05:10:01;;;;;;;31.40;19.63;;;;;;;3.25;100.00;100073.88;5041416;28;20033;-73
2024/03/09 05:12:27;;;;;;;31.92;19.50;;;;;;;3.29;100.00;100070.50;5044239;28;20057;-70
2024/03/09 05:14:52;;;;;;;31.52;19.35;;;;;;;3.33;100.00;100078.41;5040788;28;20100;-70
2024/03/09 05:17:17;;;;;;;31.35;19.77;;;;;;;3.34;100.00;100073.19;5043743;28;20122;-75
2024/03/09 05:19:43;;;;;;;30.50;18.85;;;;;;;3.35;100.00;100056.69;5042062;28;20045;-71
2024/03/09 05:22:08;;;;;;;32.33;18.73;;;;;;;3.37;100.00;100062.81;5041958;28;20030;-72
2024/03/09 05:24:34;;;;;;;30.75;19.20;;;;;;;3.39;100.00;100060.22;5043380;28;20040;-81
2024/03/09 05:26:59;;;;;;;31.40;19.42;;;;;;;3.40;100.00;100048.94;5040781;28;20112;-70
2024/03/09 05:29:26;;;;;;;30.83;19.10;;;;;;;3.39;100.00;100041.94;5044371;28;20033;-71
2024/03/09 05:31:51;;;;;;;30.35;18.75;;;;;;;3.38;100.00;100043.69;5026517;28;20032;-71
2024/03/09 05:34:18;;;;;;;30.33;17.95;;;;;;;3.46;100.00;100051.66;5041354;28;20037;-70
2024/03/09 05:36:44;;;;;;;32.50;19.33;;;;;;;3.43;100.00;100046.38;5042449;28;20035;-70
2024/03/09 05:39:13;;;;;;;31.45;19.38;;;;;;;3.42;100.00;100037.69;5041248;28;20382;-70
2024/03/09 05:41:38;;;;;;;30.85;18.55;;;;;;;3.42;100.00;100048.13;5041688;28;20152;-70
2024/03/09 05:44:04;;;;;;;30.38;18.80;;;;;;;3.41;100.00;100042.88;5043035;28;20408;-70
2024/03/09 05:46:29;;;;;;;31.15;19.00;;;;;;;3.38;100.00;100034.94;5040656;28;20025;-70
2024/03/09 05:48:55;;;;;;;30.83;18.40;;;;;;;3.34;100.00;100043.59;5044000;28;20391;-70
2024/03/09 05:51:20;;;;;;;30.90;18.35;;;;;;;3.31;100.00;100049.63;5045069;28;20109;-76
2024/03/09 05:53:49;;;;;;;30.70;18.92;;;;;;;3.26;100.00;100043.41;5046620;28;20044;-71
2024/03/09 05:56:15;;;;;;;31.42;19.17;;;;;;;3.26;100.00;100044.31;5044066;28;20053;-70
2024/03/09 05:58:41;;;;;;;33.42;18.77;;;;;;;3.26;100.00;100039.09;5044489;28;20061;-71
2024/03/09 06:01:06;;;;;;;33.25;19.20;;;;;;;3.19;100.00;100044.13;5046473;28;20071;-71
2024/03/09 06:03:32;;;;;;;31.10;19.15;;;;;;;3.11;100.00;100036.13;5043067;28;20451;-71
2024/03/09 06:05:57;;;;;;;32.67;19.63;;;;;;;3.04;100.00;100045.53;5047545;28;20036;-72
2024/03/09 06:08:23;;;;;;;30.73;18.60;;;;;;;2.97;100.00;100041.03;5043776;28;20026;-71
2024/03/09 06:10:49;;;;;;;32.22;19.05;;;;;;;2.91;100.00;100040.91;5045123;28;20148;-74
2024/03/09 06:13:18;;;;;;;31.63;19.20;;;;;;;2.88;100.00;100051.28;5045575;28;20048;-72
2024/03/09 06:15:47;;;;;;;29.67;18.52;;;;;;;2.88;100.00;100056.50;5045871;28;20468;-70
2024/03/09 06:18:19;;;;;;;30.85;18.77;;;;;;;2.88;100.00;100046.06;5045073;28;20044;-70
2024/03/09 06:20:44;;;;;;;31.15;19.50;;;;;;;2.90;100.00;100044.38;5045870;28;20484;-71
2024/03/09 06:23:09;;;;;;;32.15;19.35;;;;;;;2.87;100.00;100041.69;5046065;28;20116;-70
2024/03/09 06:25:35;;;;;;;30.08;18.42;;;;;;;2.82;100.00;100036.34;5044350;28;20088;-74
2024/03/09 06:28:05;;;;;;;31.33;18.92;;;;;;;2.76;100.00;100039.69;5047177;28;20029;-74
2024/03/09 06:30:30;;;;;;;31.50;19.35;;;;;;;2.72;100.00;100044.81;5042727;28;20040;-75
2024/03/09 06:32:57;;;;;;;32.13;18.80;;;;;;;2.71;100.00;100043.03;5046944;28;20419;-75
2024/03/09 06:35:25;;;;;;;31.05;19.00;;;;;;;2.75;100.00;100040.56;5043656;28;20026;-74
2024/03/09 06:37:59;;;;;;;31.48;19.55;;;;;;;2.79;100.00;100057.16;5046492;28;20024;-71
2024/03/09 06:40:36;;;;;;;32.00;19.52;;;;;;;2.83;100.00;100047.69;5039372;28;20484;-76
2024/03/09 06:43:05;;;;;;;31.45;19.25;;;;;;;2.84;100.00;100050.34;5040513;28;20092;-75
2024/03/09 06:45:32;;;;;;;31.02;19.13;;;;;;;2.87;100.00;100045.19;5046760;28;20463;-73
2024/03/09 06:47:58;;;;;;;30.92;19.50;;;;;;;2.89;100.00;100048.69;5043512;28;20117;-71
2024/03/09 06:50:24;;;;;;;31.52;18.90;;;;;;;2.90;100.00;100053.09;5046664;28;20040;-73
2024/03/09 06:52:51;;;;;;;31.35;19.00;;;;;;;2.93;100.00;100065.34;5044049;28;20037;-71
2024/03/09 06:55:18;;;;;;;32.80;19.02;;;;;;;2.97;100.00;100060.22;5045838;28;20053;-71
2024/03/09 06:57:46;;;;;;;31.00;18.65;;;;;;;3.02;100.00;100054.22;5044727;28;20021;-74
2024/03/09 07:00:13;;;;;;;30.77;19.33;;;;;;;3.06;100.00;100059.53;5044137;28;20021;-75
2024/03/09 07:02:42;;;;;;;29.83;18.30;;;;;;;3.15;100.00;100069.31;5045404;28;20032;-77
2024/03/09 07:05:10;;;;;;;30.08;18.80;;;;;;;3.21;100.00;100060.72;5044093;28;20108;-76
2024/03/09 07:07:40;;;;;;;31.10;18.55;;;;;;;3.32;100.00;100059.22;5045544;28;20033;-76
2024/03/09 07:10:09;;;;;;;31.75;18.88;;;;;;;3.42;100.00;100057.69;5044229;28;20120;-73
2024/03/09 07:12:41;;;;;;;30.48;18.52;;;;;;;3.54;100.00;100065.78;5045357;28;20438;-72
2024/03/09 07:15:14;;;;;;;28.90;18.10;;;;;;;3.69;100.00;100069.56;5043819;28;20037;-71
2024/03/09 07:17:40;;;;;;;31.45;18.35;;;;;;;3.82;100.00;100063.72;5044364;28;20025;-71
2024/03/09 07:20:12;;;;;;;29.92;18.17;;;;;;;3.93;100.00;100059.56;5043423;28;20040;-70
2024/03/09 07:22:41;;;;;;;29.52;17.85;;;;;;;4.07;100.00;100066.78;5044949;28;20040;-70
2024/03/09 07:25:16;;;;;;;28.95;18.02;;;;;;;4.24;100.00;100069.69;5046807;28;20083;-71
2024/03/09 07:27:43;;;;;;;28.80;17.48;;;;;;;4.27;100.00;100060.19;5044932;28;20029;-81
2024/03/09 07:30:10;;;;;;;29.17;17.35;;;;;;;4.27;100.00;100054.94;5045970;28;20091;-82
2024/03/09 07:32:37;;;;;;;29.90;17.95;;;;;;;4.28;100.00;100061.06;5044438;28;20109;-81
2024/03/09 07:35:06;;;;;;;28.33;16.98;;;;;;;4.31;100.00;100076.78;5046189;28;20112;-82
2024/03/09 07:37:31;;;;;;;29.25;16.88;;;;;;;4.41;100.00;100067.38;5043309;28;20056;-81
2024/03/09 07:39:57;;;;;;;28.98;17.35;;;;;;;4.55;100.00;100068.50;5046667;28;20025;-78
2024/03/09 07:42:23;;;;;;;28.15;16.88;;;;;;;4.80;100.00;100064.53;5041351;28;20388;-71
2024/03/09 07:44:48;;;;;;;28.25;16.95;;;;;;;5.08;100.00;100054.44;5044693;28;20057;-71
2024/03/09 07:47:14;;;;;;;27.77;16.60;;;;;;;5.33;100.00;100036.44;5043718;28;20079;-73
2024/03/09 07:49:39;;;;;;;29.15;16.80;;;;;;;5.50;100.00;100037.53;5041963;28;20030;-71
2024/03/09 07:52:05;;;;;;;28.88;16.02;;;;;;;5.72;100.00;100036.06;5044949;28;20468;-71
2024/03/09 07:54:31;;;;;;;27.75;16.77;;;;;;;5.89;100.00;100058.97;5042065;28;20044;-74
2024/03/09 07:56:57;;;;;;;31.02;18.65;;;;;;;6.03;100.00;100043.38;5045316;28;20055;-70
2024/03/09 07:59:22;;;;;;;28.20;16.33;;;;;;;6.30;100.00;100055.91;5045471;28;20057;-68
2024/03/09 08:01:49;;;;;;;29.75;18.55;;;;;;;6.37;100.00;100046.34;5042860;28;20069;-68
2024/03/09 08:04:14;;;;;;;26.98;16.65;;;;;;;6.53;100.00;100042.97;5042785;28;20038;-75
2024/03/09 08:06:43;;;;;;;27.63;16.52;;;;;;;6.85;100.00;100050.22;5043783;28;20056;-75
2024/03/09 08:09:13;;;;;;;27.15;16.02;;;;;;;7.00;100.00;100044.16;5042850;28;20034;-78
2024/03/09 08:11:40;;;;;;;26.77;15.65;;;;;;;7.21;100.00;100040.81;5042946;28;20049;-73
2024/03/09 08:14:06;;;;;;;27.65;15.63;;;;;;;7.24;100.00;100043.44;5042305;28;20078;-69
2024/03/09 08:16:33;;;;;;;27.45;16.48;;;;;;;7.38;100.00;100047.88;5044703;28;20044;-70
2024/03/09 08:18:58;;;;;;;26.85;16.23;;;;;;;7.54;100.00;100036.56;5041686;28;20053;-70
2024/03/09 08:21:24;;;;;;;26.58;15.68;;;;;;;7.73;100.00;100031.38;5044738;28;20484;-73
2024/03/09 08:23:52;;;;;;;26.80;15.57;;;;;;;7.77;100.00;100022.63;5041811;28;20036;-70
2024/03/09 08:26:18;;;;;;;26.85;15.65;;;;;;;7.91;100.00;100031.44;5043604;28;20466;-70
2024/03/09 08:28:43;;;;;;;26.92;16.20;;;;;;;8.02;100.00;100021.81;5043149;28;20121;-78
2024/03/09 08:31:09;;;;;;;27.10;16.38;;;;;;;8.20;100.00;100027.97;5042749;28;20488;-76
2024/03/09 08:33:34;;;;;;;26.55;15.70;;;;;;;8.27;100.00;100013.03;5043129;28;20033;-73
2024/03/09 08:36:02;;;;;;;27.33;15.90;;;;;;;8.42;100.00;100022.69;5039990;28;20041;-72
2024/03/09 08:38:28;;;;;;;31.17;23.50;;;;;;;8.62;100.00;100023.63;5044901;28;20379;-73
2024/03/09 08:40:53;;;;;;;35.53;29.45;;;;;;;8.84;100.00;100016.56;5041722;28;20026;-71
2024/03/09 08:43:19;;;;;;;41.13;35.00;;;;;;;9.00;100.00;100016.50;5043546;28;20060;-69
2024/03/09 08:45:47;;;;;;;28.23;16.55;;;;;;;9.22;100.00;100012.06;5042387;28;20029;-79
2024/03/09 08:48:13;;;;;;;28.38;17.17;;;;;;;9.35;100.00;100013.78;5042621;28;20032;-70
2024/03/09 08:50:39;;;;;;;27.13;16.85;;;;;;;9.56;100.00;100012.81;5043504;28;20033;-70
2024/03/09 08:53:04;;;;;;;28.08;17.50;;;;;;;9.67;100.00;100011.88;5041380;28;20405;-69
2024/03/09 08:55:32;;;;;;;26.70;15.80;;;;;;;9.77;100.00;100011.81;5044381;28;20059;-70
2024/03/09 08:58:00;;;;;;;27.33;16.90;;;;;;;9.99;100.00;100011.69;5040754;28;20064;-70
2024/03/09 09:00:26;;;;;;;25.65;15.32;;;;;;;10.16;100.00;100023.91;5036768;28;20120;-75
2024/03/09 09:02:56;;;;;;;26.35;15.70;;;;;;;10.25;100.00;100006.22;5043656;28;20108;-74
2024/03/09 09:05:22;;;;;;;26.17;15.13;;;;;;;10.56;100.00;99991.94;5041181;28;20037;-74
2024/03/09 09:07:48;;;;;;;26.23;15.32;;;;;;;10.84;100.00;100008.38;5042826;28;20026;-73
2024/03/09 09:10:14;;;;;;;26.90;16.35;;;;;;;11.09;100.00;100011.63;5042599;28;20029;-69
2024/03/09 09:12:41;;;;;;;24.85;14.23;;;;;;;11.33;100.00;100007.84;5041822;28;20021;-70
2024/03/09 09:15:10;;;;;;;26.02;14.25;;;;;;;11.54;100.00;100004.97;5042012;28;20067;-69
2024/03/09 09:17:36;;;;;;;25.80;14.27;;;;;;;11.65;100.00;100009.22;5041086;28;20052;-70
2024/03/09 09:20:03;;;;;;;24.92;14.05;;;;;;;11.75;100.00;99998.50;5043854;28;20026;-70
2024/03/09 09:22:28;;;;;;;25.35;14.30;;;;;;;11.50;100.00;100005.00;5040574;28;20040;-69
2024/03/09 09:24:54;;;;;;;25.52;14.40;;;;;;;11.20;100.00;99998.31;5046078;28;20025;-69
2024/03/09 09:27:19;;;;;;;25.50;14.23;;;;;;;10.93;100.00;99999.47;5045370;28;20472;-74
2024/03/09 09:29:45;;;;;;;25.17;14.52;;;;;;;10.90;100.00;99996.88;5046424;28;20112;-75
2024/03/09 09:32:10;;;;;;;24.92;14.02;;;;;;;10.66;100.00;99988.31;5046394;28;20029;-69
2024/03/09 09:34:36;;;;;;;25.02;13.57;;;;;;;10.54;100.00;99988.41;5045100;28;20041;-69
2024/03/09 09:37:01;;;;;;;25.42;14.27;;;;;;;10.59;100.00;99994.53;5046010;28;20036;-70
2024/03/09 09:39:32;;;;;;;25.55;14.13;;;;;;;10.59;100.00;99990.13;5044293;28;20031;-79
2024/03/09 09:41:59;;;;;;;27.17;15.55;;;;;;;10.38;100.00;99987.66;5044400;28;20116;-79
2024/03/09 09:44:29;;;;;;;25.42;14.60;;;;;;;10.33;100.00;99995.59;5048634;28;20440;-79
2024/03/09 09:46:58;;;;;;;26.05;14.82;;;;;;;10.51;100.00;99988.44;5047297;28;20086;-79
2024/03/09 09:49:25;;;;;;;26.67;15.13;;;;;;;10.71;100.00;99975.91;5045040;28;20120;-79
2024/03/09 09:51:56;;;;;;;26.55;14.82;;;;;;;10.96;100.00;99970.34;5044503;28;20447;-78
2024/03/09 09:54:26;;;;;;;30.75;20.83;;;;;;;11.27;100.00;99967.34;5045060;28;20551;-79
2024/03/09 09:56:56;;;;;;;27.75;16.42;;;;;;;11.51;100.00;99959.09;5047283;28;20450;-73
2024/03/09 09:59:25;;;;;;;35.03;25.10;;;;;;;11.52;100.00;99966.16;5044844;28;20025;-79
2024/03/09 10:01:51;;;;;;;28.42;18.35;;;;;;;11.40;100.00;99965.44;5046883;28;20117;-79
2024/03/09 10:04:16;;;;;;;29.52;20.10;;;;;;;11.19;100.00;99966.59;5045774;28;20049;-70
2024/03/09 10:06:42;;;;;;;26.33;15.38;;;;;;;11.19;100.00;99969.22;5045401;28;20025;-70
2024/03/09 10:09:08;;;;;;;26.33;15.50;;;;;;;11.18;100.00;99968.34;5045264;28;20035;-71
2024/03/09 10:11:33;;;;;;;25.80;15.18;;;;;;;11.20;100.00;99969.22;5044429;28;20121;-70
2024/03/09 10:14:00;;;;;;;26.15;15.07;;;;;;;11.28;100.00;99969.09;5045929;28;20025;-70
2024/03/09 10:16:30;;;;;;;25.83;14.25;;;;;;;11.36;100.00;99969.91;5043875;28;20026;-74
2024/03/09 10:18:57;;;;;;;27.27;16.60;;;;;;;11.47;100.00;99957.38;5046973;28;20045;-71
2024/03/09 10:21:30;;;;;;;36.08;27.17;;;;;;;11.43;100.00;99958.34;5044236;28;20132;-75
2024/03/09 10:24:02;;;;;;;30.67;21.42;;;;;;;11.31;100.00;99951.44;5045599;28;20037;-73
2024/03/09 10:26:29;;;;;;;27.05;16.52;;;;;;;11.24;100.00;99956.81;5041381;28;20038;-72
2024/03/09 10:28:59;;;;;;;30.75;21.45;;;;;;;11.57;100.00;99957.28;5045390;28;20112;-72
2024/03/09 10:31:25;;;;;;;29.33;19.40;;;;;;;11.86;100.00;99952.41;5041160;28;20033;-71
2024/03/09 10:33:55;;;;;;;26.65;15.85;;;;;;;11.81;100.00;99946.34;5041858;28;20033;-70
2024/03/09 10:36:27;;;;;;;29.00;19.50;;;;;;;11.61;100.00;99959.84;5044245;28;20029;-69
2024/03/09 10:38:57;;;;;;;31.38;20.67;;;;;;;11.73;100.00;99958.78;5044270;28;20103;-70
2024/03/09 10:41:25;;;;;;;28.40;18.00;;;;;;;11.99;100.00;99949.63;5045734;28;20032;-70
2024/03/09 10:43:55;;;;;;;27.55;16.70;;;;;;;12.76;100.00;99944.78;5042896;28;20499;-75
2024/03/09 10:46:26;;;;;;;32.67;24.40;;;;;;;14.48;100.00;99940.09;5045766;28;20037;-74
2024/03/09 10:48:56;;;;;;;27.08;16.20;;;;;;;15.93;100.00;99951.94;5044016;28;20017;-74
2024/03/09 10:51:27;;;;;;;26.08;14.02;;;;;;;16.87;100.00;99950.56;5045650;28;20041;-70
2024/03/09 10:54:17;;;;;;;26.20;14.40;;;;;;;16.35;100.00;99939.91;5043708;28;20112;-69
2024/03/09 10:56:44;;;;;;;25.55;14.55;;;;;;;14.78;100.00;99933.09;5042184;28;20021;-70
2024/03/09 10:59:14;;;;;;;25.02;14.57;;;;;;;14.13;100.00;99929.41;5045787;28;20033;-70
2024/03/09 11:01:41;;;;;;;28.58;19.58;;;;;;;13.78;100.00;99930.28;5043471;28;20026;-70
2024/03/09 11:04:08;;;;;;;25.70;15.77;;;;;;;13.29;100.00;99929.56;5045129;28;20539;-70
2024/03/09 11:06:37;;;;;;;26.65;15.85;;;;;;;12.93;100.00;99924.13;5042634;28;20065;-70
2024/03/09 11:09:06;;;;;;;26.08;14.65;;;;;;;12.62;100.00;99923.81;5046364;28;20040;-70